createdAt,value
2022-11-30T00:00:15.710Z,84.43
2022-11-30T00:01:17.541Z,84.08
2022-11-30T00:02:19.509Z,84.18
2022-11-30T00:03:21.570Z,84.35
2022-11-30T00:04:23.456Z,83.88
2022-11-30T00:05:25.488Z,84.22
2022-11-30T00:06:27.466Z,84.05
2022-11-30T00:07:29.400Z,84.41
2022-11-30T00:08:31.284Z,83.84
2022-11-30T00:09:33.305Z,84.09
2022-11-30T00:10:35.069Z,84.40
2022-11-30T00:11:37.079Z,83.93
2022-11-30T00:12:42.398Z,84.05
2022-11-30T00:13:44.549Z,84.24
2022-11-30T00:14:46.983Z,83.94
2022-11-30T00:15:49.146Z,83.70
2022-11-30T00:16:51.145Z,83.89
2022-11-30T00:17:56.707Z,83.45
2022-11-30T00:18:58.632Z,84.02
2022-11-30T00:20:00.510Z,83.94
2022-11-30T00:21:03.095Z,83.65
2022-11-30T00:22:04.975Z,84.35
2022-11-30T00:23:10.229Z,84.34
2022-11-30T00:24:12.080Z,83.78
2022-11-30T00:25:13.938Z,84.42
2022-11-30T00:26:17.805Z,84.54
2022-11-30T00:27:19.840Z,84.53
2022-11-30T00:28:21.719Z,84.61
2022-11-30T00:29:23.602Z,83.84
2022-11-30T00:30:25.464Z,84.63
2022-11-30T00:31:27.353Z,83.98
2022-11-30T00:32:29.253Z,84.47
2022-11-30T00:33:34.601Z,84.50
2022-11-30T00:34:36.456Z,83.95
2022-11-30T00:35:38.317Z,83.75
2022-11-30T00:36:40.164Z,83.95
2022-11-30T00:37:42.103Z,84.33
2022-11-30T00:38:44.284Z,84.34
2022-11-30T00:39:46.217Z,84.34
2022-11-30T00:40:48.050Z,84.21
2022-11-30T00:41:49.915Z,84.26
2022-11-30T00:42:51.793Z,84.25
2022-11-30T00:43:53.688Z,84.31
2022-11-30T00:44:55.510Z,83.99
2022-11-30T00:45:57.621Z,84.18
2022-11-30T00:46:59.548Z,84.12
2022-11-30T00:48:01.383Z,84.38
2022-11-30T00:49:03.378Z,83.67
2022-11-30T00:50:05.483Z,83.74
2022-11-30T00:51:08.123Z,83.87
2022-11-30T00:52:09.929Z,84.24
2022-11-30T00:53:11.913Z,84.33
2022-11-30T00:54:14.219Z,85.32
2022-11-30T00:55:16.076Z,85.71
2022-11-30T00:56:17.989Z,84.82
2022-11-30T00:57:19.852Z,85.42
2022-11-30T00:58:21.835Z,84.76
2022-11-30T00:59:23.736Z,84.92
2022-11-30T01:00:25.705Z,85.24
2022-11-30T01:01:27.700Z,84.51
2022-11-30T01:02:29.581Z,84.53
2022-11-30T01:03:31.476Z,85.08
2022-11-30T01:04:33.452Z,84.74
2022-11-30T01:05:35.967Z,84.99
2022-11-30T01:06:38.478Z,85.38
2022-11-30T01:07:40.475Z,85.45
2022-11-30T01:08:42.321Z,85.45
2022-11-30T01:09:44.205Z,85.59
2022-11-30T01:10:47.969Z,84.89
2022-11-30T01:11:50.393Z,85.25
2022-11-30T01:12:52.316Z,85.62
2022-11-30T01:13:55.463Z,85.44
2022-11-30T01:14:57.366Z,85.58
2022-11-30T01:15:59.359Z,85.64
2022-11-30T01:17:01.355Z,85.48
2022-11-30T01:18:03.264Z,85.11
2022-11-30T01:19:05.201Z,85.00
2022-11-30T01:20:08.315Z,85.60
2022-11-30T01:21:11.155Z,85.42
2022-11-30T01:22:12.998Z,85.05
2022-11-30T01:23:14.931Z,85.06
2022-11-30T01:24:16.815Z,84.57
2022-11-30T01:25:18.763Z,84.97
2022-11-30T01:26:20.751Z,84.50
2022-11-30T01:27:22.609Z,84.21
2022-11-30T01:28:24.495Z,84.11
2022-11-30T01:29:26.401Z,84.62
2022-11-30T01:30:28.331Z,84.25
2022-11-30T01:31:30.124Z,84.10
2022-11-30T01:32:32.014Z,84.27
2022-11-30T01:33:34.077Z,84.82
2022-11-30T01:34:35.857Z,84.72
2022-11-30T01:35:37.751Z,85.50
2022-11-30T01:36:39.673Z,85.83
2022-11-30T01:37:41.546Z,85.08
2022-11-30T01:38:47.784Z,85.65
2022-11-30T01:39:49.691Z,85.44
2022-11-30T01:40:51.688Z,85.29
2022-11-30T01:41:55.075Z,85.31
2022-11-30T01:42:56.929Z,85.08
2022-11-30T01:44:20.243Z,85.66
2022-11-30T01:45:22.226Z,85.57
2022-11-30T01:46:38.974Z,85.52
2022-11-30T01:47:52.933Z,85.48
2022-11-30T01:49:10.062Z,85.57
2022-11-30T01:50:15.464Z,85.78
2022-11-30T01:51:17.295Z,85.48
2022-11-30T01:52:20.962Z,86.17
2022-11-30T01:53:24.417Z,86.15
2022-11-30T01:54:32.558Z,86.21
2022-11-30T01:55:36.590Z,85.74
2022-11-30T01:56:41.236Z,85.70
2022-11-30T01:57:47.314Z,85.52
2022-11-30T01:58:49.334Z,85.63
2022-11-30T01:59:52.407Z,85.25
2022-11-30T02:00:54.344Z,85.50
2022-11-30T02:01:56.863Z,85.14
2022-11-30T02:03:18.829Z,85.58
2022-11-30T02:04:38.950Z,85.25
2022-11-30T02:05:41.970Z,85.08
2022-11-30T02:06:44.516Z,85.11
2022-11-30T02:07:46.473Z,85.01
2022-11-30T02:08:48.440Z,84.79
2022-11-30T02:09:50.310Z,85.37
2022-11-30T02:10:53.796Z,85.08
2022-11-30T02:11:57.062Z,84.83
2022-11-30T02:13:19.468Z,84.77
2022-11-30T02:14:24.358Z,84.44
2022-11-30T02:15:29.800Z,84.94
2022-11-30T02:16:53.670Z,84.93
2022-11-30T02:17:58.403Z,84.50
2022-11-30T02:19:18.137Z,85.23
2022-11-30T02:20:38.625Z,85.16
2022-11-30T02:21:46.642Z,85.10
2022-11-30T02:22:48.430Z,85.60
2022-11-30T02:23:56.312Z,85.34
2022-11-30T02:25:07.736Z,85.58
2022-11-30T02:26:09.572Z,85.77
2022-11-30T02:27:14.360Z,85.95
2022-11-30T02:28:19.194Z,86.43
2022-11-30T02:29:23.892Z,86.23
2022-11-30T02:30:26.017Z,86.12
2022-11-30T02:31:31.687Z,86.31
2022-11-30T02:32:40.561Z,86.47
2022-11-30T02:33:43.318Z,86.39
2022-11-30T02:34:47.570Z,86.41
2022-11-30T02:35:54.855Z,86.26
2022-11-30T02:36:58.713Z,86.22
2022-11-30T02:38:01.415Z,86.53
2022-11-30T02:39:03.436Z,86.23
2022-11-30T02:40:13.987Z,85.73
2022-11-30T02:41:15.926Z,85.76
2022-11-30T02:42:17.780Z,85.85
2022-11-30T02:43:21.480Z,85.90
2022-11-30T02:44:24.830Z,85.39
2022-11-30T02:45:41.124Z,85.44
2022-11-30T02:46:42.976Z,85.25
2022-11-30T02:47:48.832Z,85.17
2022-11-30T02:48:57.056Z,85.42
2022-11-30T02:50:01.280Z,85.33
2022-11-30T02:51:05.127Z,85.43
2022-11-30T02:52:08.495Z,86.12
2022-11-30T02:53:10.524Z,85.67
2022-11-30T02:54:12.748Z,86.69
2022-11-30T02:55:16.380Z,86.56
2022-11-30T02:56:19.056Z,86.22
2022-11-30T02:57:20.848Z,86.37
2022-11-30T02:58:22.852Z,86.87
2022-11-30T02:59:24.803Z,86.90
2022-11-30T03:00:26.745Z,86.44
2022-11-30T03:01:28.670Z,86.04
2022-11-30T03:02:30.600Z,86.13
2022-11-30T03:03:32.644Z,86.55
2022-11-30T03:04:34.518Z,86.35
2022-11-30T03:05:36.340Z,85.95
2022-11-30T03:06:38.249Z,85.82
2022-11-30T03:07:40.082Z,86.24
2022-11-30T03:08:42.075Z,85.81
2022-11-30T03:09:43.997Z,86.13
2022-11-30T03:10:45.843Z,85.52
2022-11-30T03:11:47.816Z,85.56
2022-11-30T03:12:49.729Z,85.79
2022-11-30T03:13:51.784Z,85.95
2022-11-30T03:14:53.734Z,86.05
2022-11-30T03:15:55.637Z,86.04
2022-11-30T03:16:57.797Z,85.88
2022-11-30T03:18:02.288Z,86.19
2022-11-30T03:19:04.210Z,86.17
2022-11-30T03:20:06.533Z,86.65
2022-11-30T03:21:08.935Z,86.27
2022-11-30T03:22:10.767Z,86.51
2022-11-30T03:23:12.666Z,86.77
2022-11-30T03:24:14.615Z,86.50
2022-11-30T03:25:16.447Z,86.19
2022-11-30T03:26:18.313Z,86.77
2022-11-30T03:27:20.184Z,86.18
2022-11-30T03:28:22.115Z,86.35
2022-11-30T03:29:23.995Z,86.12
2022-11-30T03:30:25.839Z,85.93
2022-11-30T03:31:27.836Z,86.13
2022-11-30T03:32:31.315Z,86.18
2022-11-30T03:33:33.220Z,85.65
2022-11-30T03:34:35.164Z,85.48
2022-11-30T03:35:37.101Z,85.86
2022-11-30T03:36:38.993Z,86.02
2022-11-30T03:37:40.839Z,85.61
2022-11-30T03:38:42.678Z,85.95
2022-11-30T03:39:44.720Z,85.48
2022-11-30T03:40:46.495Z,85.38
2022-11-30T03:41:48.422Z,85.59
2022-11-30T03:42:50.315Z,85.29
2022-11-30T03:43:52.213Z,85.65
2022-11-30T03:44:54.205Z,85.31
2022-11-30T03:45:56.155Z,86.20
2022-11-30T03:46:57.991Z,86.01
2022-11-30T03:47:59.801Z,86.30
2022-11-30T03:49:01.757Z,86.51
2022-11-30T03:50:03.932Z,86.27
2022-11-30T03:51:05.924Z,85.72
2022-11-30T03:52:07.784Z,86.56
2022-11-30T03:53:09.598Z,86.77
2022-11-30T03:54:11.516Z,86.31
2022-11-30T03:55:13.462Z,86.52
2022-11-30T03:56:15.982Z,86.17
2022-11-30T03:57:17.868Z,86.85
2022-11-30T03:58:19.778Z,86.39
2022-11-30T03:59:21.575Z,87.08
2022-11-30T04:00:23.443Z,86.38
2022-11-30T04:01:25.432Z,86.29
2022-11-30T04:02:27.318Z,86.91
2022-11-30T04:03:29.660Z,87.04
2022-11-30T04:04:31.538Z,86.80
2022-11-30T04:05:33.414Z,86.84
2022-11-30T04:06:35.443Z,86.37
2022-11-30T04:07:37.341Z,86.93
2022-11-30T04:08:39.650Z,86.47
2022-11-30T04:09:41.503Z,86.97
2022-11-30T04:10:43.463Z,86.69
2022-11-30T04:11:45.297Z,86.98
2022-11-30T04:12:47.213Z,87.40
2022-11-30T04:13:49.081Z,87.38
2022-11-30T04:14:50.993Z,86.90
2022-11-30T04:15:53.906Z,86.87
2022-11-30T04:16:55.862Z,86.75
2022-11-30T04:17:57.843Z,86.74
2022-11-30T04:18:59.762Z,86.65
2022-11-30T04:20:01.571Z,87.05
2022-11-30T04:21:04.035Z,87.07
2022-11-30T04:22:05.941Z,86.26
2022-11-30T04:23:07.998Z,86.64
2022-11-30T04:24:09.911Z,86.57
2022-11-30T04:25:11.812Z,86.24
2022-11-30T04:26:15.717Z,86.65
2022-11-30T04:27:17.681Z,86.34
2022-11-30T04:28:19.969Z,86.37
2022-11-30T04:29:21.816Z,86.56
2022-11-30T04:30:23.682Z,86.21
2022-11-30T04:31:25.752Z,86.18
2022-11-30T04:32:27.734Z,86.21
2022-11-30T04:33:30.548Z,86.27
2022-11-30T04:34:32.510Z,86.76
2022-11-30T04:35:34.596Z,87.01
2022-11-30T04:36:36.548Z,86.55
2022-11-30T04:37:38.410Z,86.83
2022-11-30T04:38:40.239Z,86.55
2022-11-30T04:39:42.102Z,86.10
2022-11-30T04:40:45.054Z,86.74
2022-11-30T04:41:46.907Z,86.49
2022-11-30T04:42:48.746Z,86.70
2022-11-30T04:43:50.696Z,86.56
2022-11-30T04:44:52.623Z,87.06
2022-11-30T04:45:54.460Z,86.76
2022-11-30T04:46:56.375Z,87.33
2022-11-30T04:47:58.443Z,87.12
2022-11-30T04:49:00.319Z,86.69
2022-11-30T04:50:02.326Z,86.68
2022-11-30T04:51:06.272Z,87.34
2022-11-30T04:52:08.265Z,86.58
2022-11-30T04:53:10.689Z,86.70
2022-11-30T04:54:12.615Z,86.66
2022-11-30T04:55:14.574Z,87.33
2022-11-30T04:56:16.526Z,87.10
2022-11-30T04:57:18.395Z,86.94
2022-11-30T04:58:20.290Z,86.77
2022-11-30T04:59:22.235Z,87.04
2022-11-30T05:00:24.191Z,87.53
2022-11-30T05:01:26.093Z,87.83
2022-11-30T05:02:29.825Z,87.31
2022-11-30T05:03:31.737Z,88.16
2022-11-30T05:04:33.694Z,88.31
2022-11-30T05:05:35.790Z,88.28
2022-11-30T05:06:37.615Z,87.51
2022-11-30T05:07:40.844Z,87.78
2022-11-30T05:08:42.718Z,87.55
2022-11-30T05:09:44.656Z,87.65
2022-11-30T05:10:51.637Z,87.53
2022-11-30T05:11:54.877Z,88.10
2022-11-30T05:12:57.504Z,88.11
2022-11-30T05:13:59.425Z,87.95
2022-11-30T05:15:01.265Z,88.10
2022-11-30T05:16:03.221Z,88.91
2022-11-30T05:17:05.156Z,88.85
2022-11-30T05:18:07.026Z,88.89
2022-11-30T05:19:08.932Z,88.93
2022-11-30T05:20:11.115Z,88.89
2022-11-30T05:21:13.126Z,88.54
2022-11-30T05:22:14.958Z,88.96
2022-11-30T05:23:17.560Z,88.25
2022-11-30T05:24:19.420Z,88.23
2022-11-30T05:25:21.340Z,88.87
2022-11-30T05:26:23.238Z,88.89
2022-11-30T05:27:25.102Z,89.19
2022-11-30T05:28:27.011Z,89.22
2022-11-30T05:29:28.880Z,88.73
2022-11-30T05:30:30.741Z,88.68
2022-11-30T05:31:33.252Z,88.21
2022-11-30T05:32:35.546Z,89.00
2022-11-30T05:33:37.424Z,88.68
2022-11-30T05:34:50.133Z,88.93
2022-11-30T05:35:52.757Z,88.89
2022-11-30T05:36:54.672Z,88.11
2022-11-30T05:37:56.607Z,88.87
2022-11-30T05:38:58.526Z,88.89
2022-11-30T05:40:00.475Z,88.72
2022-11-30T05:41:02.771Z,88.63
2022-11-30T05:42:04.661Z,88.45
2022-11-30T05:43:06.695Z,87.97
2022-11-30T05:44:08.904Z,88.60
2022-11-30T05:45:11.090Z,88.35
2022-11-30T05:46:13.066Z,88.72
2022-11-30T05:47:15.133Z,89.15
2022-11-30T05:48:16.976Z,88.64
2022-11-30T05:49:18.894Z,88.52
2022-11-30T05:50:21.343Z,87.85
2022-11-30T05:51:23.908Z,88.04
2022-11-30T05:52:25.845Z,88.16
2022-11-30T05:53:27.745Z,88.06
2022-11-30T05:54:29.652Z,88.42
2022-11-30T05:55:32.523Z,88.50
2022-11-30T05:56:34.372Z,88.62
2022-11-30T05:57:37.520Z,87.81
2022-11-30T05:58:39.464Z,88.50
2022-11-30T05:59:41.411Z,88.46
2022-11-30T06:00:43.310Z,87.95
2022-11-30T06:01:45.361Z,87.53
2022-11-30T06:02:47.552Z,88.03
2022-11-30T06:03:49.502Z,87.60
2022-11-30T06:04:51.364Z,87.79
2022-11-30T06:05:53.325Z,88.49
2022-11-30T06:06:58.192Z,88.30
2022-11-30T06:08:01.008Z,88.19
2022-11-30T06:09:03.066Z,87.36
2022-11-30T06:10:05.219Z,87.67
2022-11-30T06:11:07.456Z,86.77
2022-11-30T06:12:09.425Z,87.17
2022-11-30T06:13:11.853Z,87.44
2022-11-30T06:14:13.644Z,86.73
2022-11-30T06:15:15.483Z,86.86
2022-11-30T06:16:17.403Z,87.28
2022-11-30T06:17:19.303Z,86.63
2022-11-30T06:18:21.250Z,86.34
2022-11-30T06:19:23.055Z,86.34
2022-11-30T06:20:24.939Z,86.31
2022-11-30T06:21:26.873Z,86.65
2022-11-30T06:22:28.822Z,86.57
2022-11-30T06:23:31.086Z,85.58
2022-11-30T06:24:32.980Z,86.16
2022-11-30T06:25:35.115Z,85.25
2022-11-30T06:26:37.018Z,85.85
2022-11-30T06:27:38.885Z,85.89
2022-11-30T06:28:45.338Z,84.97
2022-11-30T06:29:49.712Z,84.72
2022-11-30T06:30:51.757Z,85.42
2022-11-30T06:31:53.643Z,85.23
2022-11-30T06:32:55.576Z,84.60
2022-11-30T06:33:58.109Z,85.18
2022-11-30T06:34:59.923Z,85.16
2022-11-30T06:36:02.158Z,84.38
2022-11-30T06:37:03.992Z,84.50
2022-11-30T06:38:05.871Z,84.51
2022-11-30T06:39:09.506Z,85.14
2022-11-30T06:40:12.427Z,85.04
2022-11-30T06:41:14.466Z,84.61
2022-11-30T06:42:16.412Z,84.74
2022-11-30T06:43:19.133Z,84.58
2022-11-30T06:44:21.565Z,84.43
2022-11-30T06:45:23.570Z,84.56
2022-11-30T06:46:27.269Z,84.32
2022-11-30T06:47:29.126Z,85.07
2022-11-30T06:48:31.099Z,84.64
2022-11-30T06:49:33.017Z,84.88
2022-11-30T06:50:34.875Z,84.70
2022-11-30T06:51:38.037Z,84.47
2022-11-30T06:52:39.905Z,84.14
2022-11-30T06:53:43.127Z,84.53
2022-11-30T06:54:45.447Z,84.74
2022-11-30T06:55:47.632Z,84.24
2022-11-30T06:56:49.437Z,83.83
2022-11-30T06:57:51.348Z,84.50
2022-11-30T06:58:54.648Z,83.96
2022-11-30T06:59:57.017Z,84.23
2022-11-30T07:00:58.863Z,84.44
2022-11-30T07:02:07.520Z,84.56
2022-11-30T07:03:11.308Z,84.14
2022-11-30T07:04:13.300Z,84.87
2022-11-30T07:05:15.225Z,84.44
2022-11-30T07:06:17.084Z,85.16
2022-11-30T07:07:19.053Z,84.75
2022-11-30T07:08:20.964Z,84.75
2022-11-30T07:09:22.884Z,84.95
2022-11-30T07:10:24.849Z,84.66
2022-11-30T07:11:26.825Z,85.09
2022-11-30T07:12:28.686Z,84.43
2022-11-30T07:13:30.527Z,84.50
2022-11-30T07:14:32.341Z,84.86
2022-11-30T07:15:34.260Z,84.92
2022-11-30T07:16:36.213Z,84.44
2022-11-30T07:17:38.116Z,84.98
2022-11-30T07:18:40.094Z,84.34
2022-11-30T07:19:41.997Z,85.01
2022-11-30T07:20:43.970Z,84.72
2022-11-30T07:21:45.792Z,84.75
2022-11-30T07:22:47.761Z,84.30
2022-11-30T07:24:08.153Z,84.05
2022-11-30T07:25:28.866Z,84.06
2022-11-30T07:26:30.956Z,84.69
2022-11-30T07:27:32.893Z,84.47
2022-11-30T07:28:36.514Z,84.16
2022-11-30T07:29:38.417Z,85.31
2022-11-30T07:30:40.256Z,85.34
2022-11-30T07:31:42.204Z,85.00
2022-11-30T07:32:44.080Z,85.91
2022-11-30T07:33:46.502Z,86.08
2022-11-30T07:34:48.799Z,85.81
2022-11-30T07:35:53.119Z,85.82
2022-11-30T07:36:55.120Z,85.56
2022-11-30T07:37:57.114Z,85.02
2022-11-30T07:38:59.020Z,85.79
2022-11-30T07:40:00.882Z,85.60
2022-11-30T07:41:02.849Z,84.63
2022-11-30T07:42:04.811Z,84.49
2022-11-30T07:43:06.661Z,85.46
2022-11-30T07:44:09.244Z,84.51
2022-11-30T07:45:11.367Z,84.87
2022-11-30T07:46:14.478Z,84.76
2022-11-30T07:47:17.053Z,85.10
2022-11-30T07:48:19.053Z,85.12
2022-11-30T07:49:20.927Z,84.78
2022-11-30T07:50:22.724Z,83.99
2022-11-30T07:51:24.622Z,84.50
2022-11-30T07:52:26.537Z,84.07
2022-11-30T07:53:28.712Z,84.06
2022-11-30T07:54:30.720Z,84.48
2022-11-30T07:55:37.290Z,84.74
2022-11-30T07:56:39.168Z,85.10
2022-11-30T07:57:41.015Z,84.49
2022-11-30T07:58:43.264Z,84.67
2022-11-30T07:59:45.570Z,84.71
2022-11-30T08:00:47.777Z,84.95
2022-11-30T08:01:49.906Z,84.57
2022-11-30T08:02:52.309Z,85.29
2022-11-30T08:03:54.088Z,84.62
2022-11-30T08:04:58.667Z,85.18
2022-11-30T08:06:04.507Z,84.28
2022-11-30T08:07:06.370Z,84.67
2022-11-30T08:08:08.273Z,84.31
2022-11-30T08:09:15.250Z,84.92
2022-11-30T08:10:21.263Z,84.82
2022-11-30T08:11:25.639Z,85.10
2022-11-30T08:12:27.499Z,84.34
2022-11-30T08:13:29.529Z,84.95
2022-11-30T08:14:37.653Z,84.01
2022-11-30T08:15:52.550Z,84.61
2022-11-30T08:16:54.554Z,84.83
2022-11-30T08:17:56.438Z,84.12
2022-11-30T08:18:58.877Z,84.40
2022-11-30T08:20:00.762Z,84.36
2022-11-30T08:21:04.257Z,84.75
2022-11-30T08:22:06.188Z,84.28
2022-11-30T08:23:08.050Z,84.72
2022-11-30T08:24:11.992Z,84.59
2022-11-30T08:25:13.980Z,84.59
2022-11-30T08:26:17.499Z,83.96
2022-11-30T08:27:20.187Z,84.42
2022-11-30T08:28:22.358Z,83.84
2022-11-30T08:29:24.262Z,84.23
2022-11-30T08:30:27.951Z,84.27
2022-11-30T08:31:32.736Z,84.39
2022-11-30T08:32:34.673Z,84.37
2022-11-30T08:33:37.146Z,84.50
2022-11-30T08:34:39.029Z,84.30
2022-11-30T08:35:40.915Z,84.29
2022-11-30T08:36:46.937Z,83.85
2022-11-30T08:37:52.232Z,84.20
2022-11-30T08:38:54.306Z,84.13
2022-11-30T08:39:56.204Z,83.76
2022-11-30T08:40:58.503Z,84.25
2022-11-30T08:42:00.892Z,85.09
2022-11-30T08:43:02.822Z,84.60
2022-11-30T08:44:04.714Z,84.22
2022-11-30T08:45:06.917Z,84.36
2022-11-30T08:46:27.921Z,84.62
2022-11-30T08:47:31.741Z,84.91
2022-11-30T08:48:34.068Z,85.19
2022-11-30T08:49:35.964Z,84.69
2022-11-30T08:50:37.940Z,85.18
2022-11-30T08:52:08.889Z,84.54
2022-11-30T08:53:06.208Z,84.54
2022-11-30T08:54:08.460Z,84.17
2022-11-30T08:55:10.351Z,84.14
2022-11-30T08:56:13.796Z,84.89
2022-11-30T08:57:17.750Z,84.26
2022-11-30T08:58:19.682Z,83.81
2022-11-30T08:59:21.714Z,83.81
2022-11-30T09:00:23.652Z,84.06
2022-11-30T09:01:28.442Z,83.74
2022-11-30T09:02:33.322Z,84.86
2022-11-30T09:03:35.251Z,84.75
2022-11-30T09:04:37.079Z,84.68
2022-11-30T09:05:38.986Z,83.95
2022-11-30T09:06:42.261Z,84.68
2022-11-30T09:07:44.149Z,83.82
2022-11-30T09:08:46.929Z,84.49
2022-11-30T09:09:49.007Z,84.53
2022-11-30T09:10:52.373Z,84.22
2022-11-30T09:11:54.300Z,84.27
2022-11-30T09:12:56.194Z,82.92
2022-11-30T09:14:00.138Z,82.99
2022-11-30T09:15:02.281Z,83.60
2022-11-30T09:16:04.683Z,83.24
2022-11-30T09:17:06.635Z,83.13
2022-11-30T09:18:08.465Z,83.24
2022-11-30T09:19:10.329Z,82.88
2022-11-30T09:20:12.508Z,83.43
2022-11-30T09:21:17.348Z,83.27
2022-11-30T09:22:19.828Z,83.32
2022-11-30T09:23:21.592Z,83.08
2022-11-30T09:24:23.489Z,82.61
2022-11-30T09:25:25.566Z,82.82
2022-11-30T09:26:27.539Z,82.28
2022-11-30T09:27:31.658Z,82.33
2022-11-30T09:28:33.909Z,81.92
2022-11-30T09:29:36.758Z,82.66
2022-11-30T09:30:38.691Z,82.29
2022-11-30T09:31:40.547Z,82.11
2022-11-30T09:32:42.503Z,82.78
2022-11-30T09:33:44.868Z,83.22
2022-11-30T09:34:47.106Z,82.92
2022-11-30T09:35:56.730Z,83.21
2022-11-30T09:36:58.625Z,82.96
2022-11-30T09:38:00.564Z,82.56
2022-11-30T09:39:02.435Z,83.10
2022-11-30T09:40:04.555Z,82.65
2022-11-30T09:41:11.764Z,82.98
2022-11-30T09:42:21.055Z,82.45
2022-11-30T09:43:22.939Z,82.29
2022-11-30T09:44:27.880Z,81.74
2022-11-30T09:45:31.599Z,81.73
2022-11-30T09:46:51.955Z,82.46
2022-11-30T09:48:02.904Z,82.11
2022-11-30T09:49:09.368Z,82.50
2022-11-30T09:50:14.293Z,82.81
2022-11-30T09:51:36.415Z,82.92
2022-11-30T09:52:41.809Z,82.98
2022-11-30T09:53:45.479Z,82.86
2022-11-30T09:54:48.554Z,82.86
2022-11-30T09:55:51.938Z,82.41
2022-11-30T09:56:53.754Z,82.50
2022-11-30T09:57:58.884Z,82.33
2022-11-30T09:59:05.054Z,82.03
2022-11-30T10:00:15.271Z,81.87
2022-11-30T10:01:18.881Z,81.75
2022-11-30T10:02:22.877Z,81.55
2022-11-30T10:03:25.047Z,81.58
2022-11-30T10:04:28.209Z,81.21
2022-11-30T10:05:36.096Z,80.97
2022-11-30T10:06:46.582Z,80.96
2022-11-30T10:08:07.371Z,81.37
2022-11-30T10:09:15.305Z,81.44
2022-11-30T10:10:36.422Z,80.91
2022-11-30T10:11:38.300Z,81.03
2022-11-30T10:12:45.359Z,81.02
2022-11-30T10:13:47.142Z,80.96
2022-11-30T10:15:12.077Z,80.85
2022-11-30T10:16:30.075Z,80.76
2022-11-30T10:17:41.238Z,81.09
2022-11-30T10:18:53.329Z,80.97
2022-11-30T10:19:55.202Z,81.71
2022-11-30T10:21:15.750Z,81.45
2022-11-30T10:22:17.621Z,81.77
2022-11-30T10:23:30.695Z,81.77
2022-11-30T10:24:41.922Z,81.47
2022-11-30T10:25:58.144Z,80.92
2022-11-30T10:27:04.193Z,80.59
2022-11-30T10:28:24.405Z,81.17
2022-11-30T10:29:31.938Z,81.37
2022-11-30T10:30:35.950Z,80.94
2022-11-30T10:31:38.843Z,81.00
2022-11-30T10:32:42.125Z,80.95
2022-11-30T10:33:48.711Z,80.69
2022-11-30T10:34:55.037Z,80.47
2022-11-30T10:35:59.267Z,80.69
2022-11-30T10:37:17.525Z,80.89
2022-11-30T10:38:19.323Z,80.38
2022-11-30T10:39:25.005Z,80.67
2022-11-30T10:40:34.795Z,80.79
2022-11-30T10:41:41.051Z,80.74
2022-11-30T10:43:01.740Z,80.87
2022-11-30T10:44:03.662Z,80.65
2022-11-30T10:45:13.554Z,81.03
2022-11-30T10:46:20.249Z,81.24
2022-11-30T10:47:27.504Z,81.30
2022-11-30T10:48:34.987Z,81.08
2022-11-30T10:49:38.969Z,81.61
2022-11-30T10:50:41.015Z,81.74
2022-11-30T10:51:45.890Z,81.75
2022-11-30T10:52:55.235Z,81.38
2022-11-30T10:53:58.352Z,81.19
2022-11-30T10:55:04.858Z,81.29
2022-11-30T10:56:10.527Z,80.97
2022-11-30T10:57:14.872Z,81.70
2022-11-30T10:58:22.584Z,81.41
2022-11-30T10:59:34.840Z,81.35
2022-11-30T11:00:36.798Z,81.77
2022-11-30T11:01:39.778Z,82.38
2022-11-30T11:02:49.234Z,83.31
2022-11-30T11:04:07.059Z,83.47
2022-11-30T11:05:10.586Z,83.04
2022-11-30T11:06:24.207Z,83.58
2022-11-30T11:07:26.227Z,83.54
2022-11-30T11:08:28.702Z,83.37
2022-11-30T11:09:30.719Z,82.71
2022-11-30T11:10:37.360Z,82.66
2022-11-30T11:11:39.668Z,82.68
2022-11-30T11:12:46.952Z,82.65
2022-11-30T11:13:48.795Z,82.62
2022-11-30T11:15:07.788Z,82.48
2022-11-30T11:16:12.137Z,82.69
2022-11-30T11:17:19.793Z,82.52
2022-11-30T11:18:26.548Z,82.93
2022-11-30T11:19:35.845Z,82.81
2022-11-30T11:20:42.838Z,82.89
2022-11-30T11:21:49.193Z,83.47
2022-11-30T11:22:51.043Z,83.83
2022-11-30T11:23:57.207Z,83.30
2022-11-30T11:25:11.892Z,83.07
2022-11-30T11:26:20.097Z,83.02
2022-11-30T11:27:21.949Z,83.24
2022-11-30T11:28:25.632Z,82.99
2022-11-30T11:29:32.883Z,82.88
2022-11-30T11:30:35.870Z,82.75
2022-11-30T11:31:47.672Z,82.54
2022-11-30T11:33:09.977Z,81.61
2022-11-30T11:34:32.098Z,82.08
2022-11-30T11:35:37.144Z,82.18
2022-11-30T11:36:39.039Z,82.07
2022-11-30T11:37:51.263Z,82.06
2022-11-30T11:38:53.212Z,81.84
2022-11-30T11:39:56.433Z,81.89
2022-11-30T11:41:06.626Z,82.07
2022-11-30T11:42:19.155Z,81.90
2022-11-30T11:43:25.009Z,81.70
2022-11-30T11:44:28.354Z,81.63
2022-11-30T11:45:33.560Z,81.38
2022-11-30T11:46:38.078Z,81.65
2022-11-30T11:47:40.973Z,81.76
2022-11-30T11:48:56.598Z,81.44
2022-11-30T11:50:06.286Z,81.27
2022-11-30T11:51:09.551Z,81.21
2022-11-30T11:52:11.408Z,81.23
2022-11-30T11:53:16.034Z,81.20
2022-11-30T11:54:28.994Z,80.91
2022-11-30T11:55:30.931Z,80.84
2022-11-30T11:56:34.847Z,80.78
2022-11-30T11:57:40.506Z,80.73
2022-11-30T11:58:42.476Z,80.87
2022-11-30T11:59:47.300Z,80.77
2022-11-30T12:00:50.987Z,80.56
2022-11-30T12:01:59.617Z,80.74
2022-11-30T12:03:14.625Z,80.45
2022-11-30T12:04:35.119Z,80.64
2022-11-30T12:05:38.614Z,80.41
2022-11-30T12:06:42.118Z,80.37
2022-11-30T12:08:02.356Z,79.97
2022-11-30T12:09:08.140Z,79.99
2022-11-30T12:10:50.468Z,79.97
2022-11-30T12:11:45.488Z,80.28
2022-11-30T12:12:51.994Z,79.64
2022-11-30T12:13:56.468Z,79.04
2022-11-30T12:14:58.496Z,78.93
2022-11-30T12:16:12.549Z,79.00
2022-11-30T12:17:29.844Z,79.15
2022-11-30T12:18:40.019Z,79.73
2022-11-30T12:20:04.336Z,79.79
2022-11-30T12:21:13.341Z,79.31
2022-11-30T12:22:23.289Z,79.10
2022-11-30T12:23:25.092Z,79.30
2022-11-30T12:24:52.123Z,79.32
2022-11-30T12:25:53.960Z,79.36
2022-11-30T12:26:55.766Z,79.16
2022-11-30T12:28:03.991Z,79.64
2022-11-30T12:29:05.842Z,79.33
2022-11-30T12:30:13.729Z,79.09
2022-11-30T12:31:17.543Z,79.06
2022-11-30T12:32:19.547Z,78.95
2022-11-30T12:33:39.188Z,79.18
2022-11-30T12:34:56.301Z,79.24
2022-11-30T12:36:06.401Z,79.05
2022-11-30T12:37:22.658Z,78.59
2022-11-30T12:38:43.459Z,78.64
2022-11-30T12:40:05.550Z,78.72
2022-11-30T12:41:29.925Z,78.22
2022-11-30T12:42:42.606Z,78.15
2022-11-30T12:43:53.351Z,78.17
2022-11-30T12:45:04.350Z,78.21
2022-11-30T12:46:26.334Z,78.60
2022-11-30T12:47:40.486Z,78.94
2022-11-30T12:48:52.185Z,78.82
2022-11-30T12:49:54.153Z,78.37
2022-11-30T12:51:02.003Z,78.58
2022-11-30T12:52:15.098Z,78.17
2022-11-30T12:53:20.938Z,78.80
2022-11-30T12:54:25.607Z,78.94
2022-11-30T12:55:27.848Z,78.09
2022-11-30T12:56:29.643Z,78.33
2022-11-30T12:57:51.687Z,78.25
2022-11-30T12:59:05.415Z,77.52
2022-11-30T13:00:07.570Z,77.48
2022-11-30T13:01:28.152Z,77.84
2022-11-30T13:02:48.827Z,77.82
2022-11-30T13:03:56.862Z,78.19
2022-11-30T13:05:08.625Z,78.45
2022-11-30T13:06:13.540Z,78.38
2022-11-30T13:07:21.509Z,78.44
2022-11-30T13:08:29.013Z,78.11
2022-11-30T13:09:34.065Z,78.01
2022-11-30T13:10:44.975Z,77.78
2022-11-30T13:11:49.842Z,78.08
2022-11-30T13:12:53.278Z,78.33
2022-11-30T13:13:57.629Z,78.13
2022-11-30T13:15:01.035Z,78.14
2022-11-30T13:16:05.367Z,77.38
2022-11-30T13:17:08.429Z,77.94
2022-11-30T13:18:16.467Z,76.66
2022-11-30T13:19:28.521Z,77.59
2022-11-30T13:20:44.330Z,77.37
2022-11-30T13:21:50.283Z,77.31
2022-11-30T13:23:01.125Z,77.44
2022-11-30T13:24:15.431Z,77.73
2022-11-30T13:26:10.102Z,77.37
2022-11-30T13:27:06.436Z,77.70
2022-11-30T13:28:26.482Z,77.64
2022-11-30T13:29:45.126Z,77.51
2022-11-30T13:30:53.024Z,77.96
2022-11-30T13:31:57.664Z,77.70
2022-11-30T13:33:19.554Z,77.61
2022-11-30T13:34:24.525Z,77.65
2022-11-30T13:35:26.417Z,77.71
2022-11-30T13:36:34.092Z,77.50
2022-11-30T13:37:36.043Z,77.93
2022-11-30T13:38:38.421Z,77.57
2022-11-30T13:39:50.838Z,77.24
2022-11-30T13:40:54.166Z,77.48
2022-11-30T13:42:01.855Z,78.04
2022-11-30T13:43:03.717Z,78.20
2022-11-30T13:44:06.232Z,77.94
2022-11-30T13:45:14.060Z,77.17
2022-11-30T13:46:19.749Z,77.61
2022-11-30T13:47:32.335Z,78.34
2022-11-30T13:48:37.947Z,78.38
2022-11-30T13:49:39.937Z,78.35
2022-11-30T13:50:41.889Z,78.53
2022-11-30T13:51:43.826Z,78.01